createdAt,value
2022-11-17T00:00:01.431Z,984.31
2022-11-17T00:01:01.416Z,984.34
2022-11-17T00:02:01.462Z,984.31
2022-11-17T00:03:01.436Z,984.29
2022-11-17T00:04:16.783Z,984.32
2022-11-17T00:05:01.366Z,984.31
2022-11-17T00:06:01.586Z,984.26
2022-11-17T00:07:22.631Z,984.25
2022-11-17T00:08:02.600Z,984.22
2022-11-17T00:09:01.318Z,984.22
2022-11-17T00:10:01.320Z,984.20
2022-11-17T00:11:01.310Z,984.19
2022-11-17T00:12:01.312Z,984.18
2022-11-17T00:13:01.555Z,984.13
2022-11-17T00:14:01.281Z,984.10
2022-11-17T00:15:01.542Z,984.03
2022-11-17T00:16:02.265Z,984.04
2022-11-17T00:17:22.500Z,983.94
2022-11-17T00:18:01.284Z,983.98
2022-11-17T00:19:08.462Z,983.98
2022-11-17T00:20:01.479Z,983.90
2022-11-17T00:21:04.240Z,983.95
2022-11-17T00:22:01.199Z,983.86
2022-11-17T00:23:01.202Z,983.89
2022-11-17T00:24:01.422Z,983.87
2022-11-17T00:25:04.439Z,983.82
2022-11-17T00:26:01.157Z,983.83
2022-11-17T00:27:02.196Z,983.81
2022-11-17T00:28:02.153Z,983.79
2022-11-17T00:29:01.401Z,983.77
2022-11-17T00:30:01.361Z,983.81
2022-11-17T00:31:01.141Z,983.78
2022-11-17T00:32:04.118Z,983.76
2022-11-17T00:33:01.360Z,983.74
2022-11-17T00:34:16.469Z,983.68
2022-11-17T00:35:01.101Z,983.68
2022-11-17T00:36:01.279Z,983.62
2022-11-17T00:37:01.074Z,983.65
2022-11-17T00:38:01.031Z,983.61
2022-11-17T00:39:01.035Z,983.63
2022-11-17T00:40:01.551Z,983.64
2022-11-17T00:41:01.037Z,983.62
2022-11-17T00:42:08.282Z,983.57
2022-11-17T00:43:02.015Z,983.58
2022-11-17T00:44:02.002Z,983.56
2022-11-17T00:45:00.995Z,983.56
2022-11-17T00:46:01.194Z,983.62
2022-11-17T00:47:22.171Z,983.61
2022-11-17T00:48:01.161Z,983.65
2022-11-17T00:49:00.934Z,983.65
2022-11-17T00:50:08.068Z,983.64
2022-11-17T00:51:00.942Z,983.62
2022-11-17T00:52:00.925Z,983.61
2022-11-17T00:53:00.903Z,983.58
2022-11-17T00:54:00.898Z,983.57
2022-11-17T00:55:01.155Z,983.49
2022-11-17T00:56:00.895Z,983.47
2022-11-17T00:57:01.082Z,983.46
2022-11-17T00:58:00.845Z,983.45
2022-11-17T00:59:01.092Z,983.43
2022-11-17T01:00:01.046Z,983.42
2022-11-17T01:01:00.969Z,983.41
2022-11-17T01:02:01.107Z,983.38
2022-11-17T01:03:00.819Z,983.39
2022-11-17T01:04:00.824Z,983.36
2022-11-17T01:05:00.973Z,983.37
2022-11-17T01:06:08.269Z,983.33
2022-11-17T01:07:04.059Z,983.32
2022-11-17T01:08:23.028Z,983.29
2022-11-17T01:09:00.728Z,983.28
2022-11-17T01:10:00.740Z,983.23
2022-11-17T01:11:03.754Z,983.24
2022-11-17T01:12:01.705Z,983.19
2022-11-17T01:13:00.936Z,983.14
2022-11-17T01:14:03.710Z,983.10
2022-11-17T01:15:00.924Z,983.10
2022-11-17T01:16:00.910Z,983.06
2022-11-17T01:17:01.675Z,983.05
2022-11-17T01:18:07.907Z,982.99
2022-11-17T01:19:00.624Z,983.03
2022-11-17T01:20:00.656Z,983.03
2022-11-17T01:21:03.648Z,983.03
2022-11-17T01:22:03.608Z,983.01
2022-11-17T01:23:07.919Z,983.03
2022-11-17T01:24:00.588Z,983.03
2022-11-17T01:25:03.589Z,982.99
2022-11-17T01:26:00.773Z,982.96
2022-11-17T01:27:24.566Z,982.99
2022-11-17T01:28:07.956Z,982.96
2022-11-17T01:29:07.838Z,982.97
2022-11-17T01:30:00.523Z,982.93
2022-11-17T01:31:03.533Z,982.91
2022-11-17T01:32:00.755Z,982.91
2022-11-17T01:33:00.482Z,982.88
2022-11-17T01:34:01.507Z,982.89
2022-11-17T01:35:00.445Z,982.85
2022-11-17T01:36:00.472Z,982.83
2022-11-17T01:37:07.625Z,982.80
2022-11-17T01:38:00.671Z,982.78
2022-11-17T01:39:03.683Z,982.77
2022-11-17T01:40:03.659Z,982.70
2022-11-17T01:41:00.641Z,982.69
2022-11-17T01:42:00.379Z,982.71
2022-11-17T01:43:00.616Z,982.65
2022-11-17T01:44:01.368Z,982.68
2022-11-17T01:45:01.600Z,982.67
2022-11-17T01:46:00.593Z,982.60
2022-11-17T01:47:01.175Z,982.60
2022-11-17T01:48:00.352Z,982.56
2022-11-17T01:49:01.581Z,982.52
2022-11-17T01:50:03.577Z,982.44
2022-11-17T01:51:00.758Z,982.44
2022-11-17T01:52:01.535Z,982.45
2022-11-17T01:53:00.295Z,982.42
2022-11-17T01:54:00.496Z,982.42
2022-11-17T01:55:01.278Z,982.37
2022-11-17T01:56:00.246Z,982.34
2022-11-17T01:57:07.477Z,982.26
2022-11-17T01:58:00.284Z,982.26
2022-11-17T01:59:00.435Z,982.19
2022-11-17T02:00:03.426Z,982.17
2022-11-17T02:01:00.216Z,982.15
2022-11-17T02:02:03.250Z,982.16
2022-11-17T02:03:00.414Z,982.12
2022-11-17T02:04:01.179Z,982.06
2022-11-17T02:05:00.378Z,982.01
2022-11-17T02:06:07.632Z,981.98
2022-11-17T02:07:01.398Z,981.98
2022-11-17T02:08:00.154Z,982.02
2022-11-17T02:09:00.115Z,982.00
2022-11-17T02:10:03.135Z,982.00
2022-11-17T02:11:01.081Z,981.97
2022-11-17T02:12:00.324Z,981.98
2022-11-17T02:13:00.291Z,981.96
2022-11-17T02:14:00.085Z,981.92
2022-11-17T02:15:01.284Z,981.90
2022-11-17T02:16:03.089Z,981.91
2022-11-17T02:17:08.902Z,981.89
2022-11-17T02:18:16.492Z,981.85
2022-11-17T02:19:00.257Z,981.83
2022-11-17T02:20:07.064Z,981.85
2022-11-17T02:20:59.995Z,981.80
2022-11-17T02:21:59.965Z,981.80
2022-11-17T02:23:07.072Z,981.76
2022-11-17T02:23:59.999Z,981.85
2022-11-17T02:25:01.183Z,981.82
2022-11-17T02:26:01.033Z,981.84
2022-11-17T02:27:00.943Z,981.87
2022-11-17T02:27:59.945Z,981.78
2022-11-17T02:28:59.913Z,981.84
2022-11-17T02:30:00.156Z,981.75
2022-11-17T02:31:03.149Z,981.73
2022-11-17T02:32:00.883Z,981.70
2022-11-17T02:32:59.877Z,981.71
2022-11-17T02:35:10.750Z,981.70
2022-11-17T02:36:10.738Z,981.66
2022-11-17T02:37:17.975Z,981.60
2022-11-17T02:38:11.737Z,981.58
2022-11-17T02:39:10.746Z,981.57
2022-11-17T02:40:10.682Z,981.54
2022-11-17T02:41:10.683Z,981.53
2022-11-17T02:42:13.692Z,981.49
2022-11-17T02:43:10.652Z,981.48
2022-11-17T02:44:11.675Z,981.48
2022-11-17T02:45:11.644Z,981.51
2022-11-17T02:46:10.654Z,981.55
2022-11-17T02:47:13.880Z,981.52
2022-11-17T02:48:10.603Z,981.46
2022-11-17T02:49:17.859Z,981.50
2022-11-17T02:50:10.835Z,981.51
2022-11-17T02:51:10.604Z,981.47
2022-11-17T02:52:10.564Z,981.48
2022-11-17T02:53:25.932Z,981.44
2022-11-17T02:54:31.541Z,981.44
2022-11-17T02:55:11.795Z,981.36
2022-11-17T02:56:10.770Z,981.40
2022-11-17T02:57:13.753Z,981.36
2022-11-17T02:58:10.731Z,981.40
2022-11-17T02:59:25.865Z,981.37
2022-11-17T03:00:10.720Z,981.36
2022-11-17T03:01:10.744Z,981.34
2022-11-17T03:02:10.470Z,981.29
2022-11-17T03:03:10.444Z,981.33
2022-11-17T03:04:13.470Z,981.30
2022-11-17T03:05:10.432Z,981.33
2022-11-17T03:06:13.463Z,981.27
2022-11-17T03:07:10.775Z,981.26
2022-11-17T03:08:10.628Z,981.28
2022-11-17T03:09:17.488Z,981.23
2022-11-17T03:10:17.630Z,981.17
2022-11-17T03:11:10.611Z,981.12
2022-11-17T03:12:10.383Z,981.13
2022-11-17T03:13:11.590Z,981.11
2022-11-17T03:14:10.363Z,981.12
2022-11-17T03:15:10.324Z,981.12
2022-11-17T03:16:10.316Z,981.08
2022-11-17T03:17:10.554Z,981.09
2022-11-17T03:18:10.308Z,981.15
2022-11-17T03:19:11.330Z,981.14
2022-11-17T03:20:10.282Z,981.04
2022-11-17T03:21:10.506Z,981.03
2022-11-17T03:22:10.263Z,981.04
2022-11-17T03:23:10.288Z,981.03
2022-11-17T03:24:13.276Z,980.99
2022-11-17T03:25:10.235Z,980.95
2022-11-17T03:26:31.226Z,980.94
2022-11-17T03:27:17.516Z,980.91
2022-11-17T03:28:10.458Z,980.95
2022-11-17T03:29:10.190Z,980.91
2022-11-17T03:30:10.184Z,980.84
2022-11-17T03:31:11.415Z,980.82
2022-11-17T03:32:11.407Z,980.81
2022-11-17T03:33:10.189Z,980.78
2022-11-17T03:34:11.180Z,980.78
2022-11-17T03:35:13.169Z,980.81
2022-11-17T03:36:13.387Z,980.82
2022-11-17T03:37:11.134Z,980.75
2022-11-17T03:38:10.344Z,980.79
2022-11-17T03:39:13.354Z,980.79
2022-11-17T03:40:10.058Z,980.80
2022-11-17T03:41:10.123Z,980.76
2022-11-17T03:42:11.058Z,980.73
2022-11-17T03:43:10.055Z,980.71
2022-11-17T03:44:13.048Z,980.71
2022-11-17T03:45:13.292Z,980.64
2022-11-17T03:46:25.667Z,980.67
2022-11-17T03:47:10.995Z,980.69
2022-11-17T03:48:10.269Z,980.71
2022-11-17T03:49:25.407Z,980.70
2022-11-17T03:50:11.018Z,980.65
2022-11-17T03:51:17.019Z,980.65
2022-11-17T03:52:09.946Z,980.58
2022-11-17T03:53:12.989Z,980.65
2022-11-17T03:54:09.967Z,980.66
2022-11-17T03:55:09.962Z,980.62
2022-11-17T03:56:17.294Z,980.67
2022-11-17T03:57:12.920Z,980.70
2022-11-17T03:58:10.135Z,980.70
2022-11-17T03:59:09.887Z,980.69
2022-11-17T04:00:10.151Z,980.65
2022-11-17T04:01:13.081Z,980.62
2022-11-17T04:02:13.090Z,980.51
2022-11-17T04:03:10.852Z,980.51
2022-11-17T04:04:13.120Z,980.51
2022-11-17T04:05:09.850Z,980.51
2022-11-17T04:06:09.800Z,980.59
2022-11-17T04:07:12.924Z,980.57
2022-11-17T04:08:17.165Z,980.59
2022-11-17T04:09:10.037Z,980.56
2022-11-17T04:10:17.002Z,980.57
2022-11-17T04:11:09.762Z,980.48
2022-11-17T04:12:12.792Z,980.49
2022-11-17T04:13:09.970Z,980.49
2022-11-17T04:14:09.750Z,980.52
2022-11-17T04:15:09.753Z,980.49
2022-11-17T04:16:09.944Z,980.41
2022-11-17T04:17:09.701Z,980.47
2022-11-17T04:18:09.670Z,980.50
2022-11-17T04:19:09.666Z,980.43
2022-11-17T04:20:10.936Z,980.50
2022-11-17T04:21:09.913Z,980.47
2022-11-17T04:22:09.645Z,980.50
2022-11-17T04:23:09.862Z,980.50
2022-11-17T04:24:12.664Z,980.55
2022-11-17T04:25:12.646Z,980.56
2022-11-17T04:26:09.842Z,980.60
2022-11-17T04:27:09.605Z,980.66
2022-11-17T04:28:09.618Z,980.64
2022-11-17T04:29:12.604Z,980.67
2022-11-17T04:30:16.864Z,980.61
2022-11-17T04:31:12.795Z,980.68
2022-11-17T04:32:09.786Z,980.59
2022-11-17T04:33:16.830Z,980.60
2022-11-17T04:34:12.770Z,980.62
2022-11-17T04:35:09.753Z,980.63
2022-11-17T04:36:17.025Z,980.58
2022-11-17T04:37:09.513Z,980.57
2022-11-17T04:38:09.703Z,980.55
2022-11-17T04:39:10.506Z,980.49
2022-11-17T04:40:09.685Z,980.49
2022-11-17T04:41:09.683Z,980.51
2022-11-17T04:42:09.717Z,980.50
2022-11-17T04:43:10.425Z,980.51
2022-11-17T04:44:09.423Z,980.51
2022-11-17T04:45:09.642Z,980.51
2022-11-17T04:46:10.665Z,980.53
2022-11-17T04:47:09.429Z,980.45
2022-11-17T04:48:09.390Z,980.39
2022-11-17T04:49:09.370Z,980.43
2022-11-17T04:50:12.622Z,980.46
2022-11-17T04:51:10.366Z,980.39
2022-11-17T04:52:09.357Z,980.39
2022-11-17T04:53:12.345Z,980.40
2022-11-17T04:54:09.339Z,980.37
2022-11-17T04:55:10.329Z,980.36
2022-11-17T04:56:12.536Z,980.33
2022-11-17T04:57:09.305Z,980.38
2022-11-17T04:58:11.083Z,980.44
2022-11-17T04:59:09.528Z,980.36
2022-11-17T05:00:16.772Z,980.38
2022-11-17T05:01:12.340Z,980.40
2022-11-17T05:02:09.291Z,980.36
2022-11-17T05:03:09.208Z,980.41
2022-11-17T05:04:09.221Z,980.41
2022-11-17T05:05:09.457Z,980.41
2022-11-17T05:06:09.193Z,980.36
2022-11-17T05:07:09.259Z,980.29
2022-11-17T05:08:09.179Z,980.23
2022-11-17T05:09:12.200Z,980.24
2022-11-17T05:10:09.401Z,980.26
2022-11-17T05:11:24.742Z,980.23
2022-11-17T05:12:09.363Z,980.19
2022-11-17T05:13:09.168Z,980.26
2022-11-17T05:14:10.109Z,980.25
2022-11-17T05:15:09.093Z,980.29
2022-11-17T05:16:10.566Z,980.21
2022-11-17T05:17:30.378Z,980.21
2022-11-17T05:18:16.342Z,980.25
2022-11-17T05:19:09.117Z,980.24
2022-11-17T05:20:12.310Z,980.28
2022-11-17T05:21:09.270Z,980.25
2022-11-17T05:22:09.046Z,980.23
2022-11-17T05:23:12.064Z,980.30
2022-11-17T05:24:10.255Z,980.30
2022-11-17T05:25:09.222Z,980.29
2022-11-17T05:26:10.010Z,980.30
2022-11-17T05:27:08.984Z,980.23
2022-11-17T05:28:08.965Z,980.26
2022-11-17T05:29:16.050Z,980.26
2022-11-17T05:30:08.960Z,980.28
2022-11-17T05:31:08.933Z,980.22
2022-11-17T05:32:08.945Z,980.26
2022-11-17T05:33:09.183Z,980.23
2022-11-17T05:34:08.904Z,980.24
2022-11-17T05:35:08.887Z,980.24
2022-11-17T05:36:11.914Z,980.26
2022-11-17T05:37:16.063Z,980.28
2022-11-17T05:38:09.118Z,980.31
2022-11-17T05:39:09.877Z,980.27
2022-11-17T05:40:09.065Z,980.29
2022-11-17T05:41:15.924Z,980.26
2022-11-17T05:42:09.068Z,980.25
2022-11-17T05:43:09.037Z,980.25
2022-11-17T05:44:09.025Z,980.24
2022-11-17T05:45:09.819Z,980.24
2022-11-17T05:46:30.001Z,980.18
2022-11-17T05:47:08.766Z,980.15
2022-11-17T05:48:08.777Z,980.17
2022-11-17T05:49:09.757Z,980.13
2022-11-17T05:50:08.761Z,980.13
2022-11-17T05:51:08.970Z,980.05
2022-11-17T05:52:09.729Z,980.04
2022-11-17T05:53:08.741Z,980.04
2022-11-17T05:54:08.941Z,979.99
2022-11-17T05:55:08.698Z,979.99
2022-11-17T05:56:11.698Z,980.04
2022-11-17T05:57:09.940Z,980.05
2022-11-17T05:58:08.736Z,979.98
2022-11-17T05:59:27.797Z,980.03
2022-11-17T06:00:08.646Z,980.06
2022-11-17T06:01:08.655Z,980.07
2022-11-17T06:02:11.641Z,980.08
2022-11-17T06:03:08.883Z,980.07
2022-11-17T06:04:08.868Z,980.14
2022-11-17T06:05:08.601Z,980.13
2022-11-17T06:06:16.068Z,980.17
2022-11-17T06:07:08.604Z,980.17
2022-11-17T06:08:09.789Z,980.18
2022-11-17T06:09:08.564Z,980.17
2022-11-17T06:10:09.579Z,980.14
2022-11-17T06:11:09.538Z,980.24
2022-11-17T06:12:16.009Z,980.11
2022-11-17T06:13:08.518Z,980.16
2022-11-17T06:14:09.497Z,980.15
2022-11-17T06:15:08.527Z,980.16
2022-11-17T06:16:08.469Z,980.12
2022-11-17T06:17:11.496Z,980.13
2022-11-17T06:18:08.706Z,980.14
2022-11-17T06:19:08.458Z,980.17
2022-11-17T06:20:08.693Z,980.22
2022-11-17T06:21:08.676Z,980.26
2022-11-17T06:22:13.174Z,980.25
2022-11-17T06:23:08.633Z,980.29
2022-11-17T06:24:11.643Z,980.33
2022-11-17T06:25:08.411Z,980.33
2022-11-17T06:26:08.365Z,980.29
2022-11-17T06:27:08.385Z,980.25
2022-11-17T06:28:11.403Z,980.21
2022-11-17T06:29:23.624Z,980.29
2022-11-17T06:30:08.346Z,980.21
2022-11-17T06:31:08.349Z,980.21
2022-11-17T06:32:09.575Z,980.19
2022-11-17T06:33:09.555Z,980.19
2022-11-17T06:34:08.281Z,980.15
2022-11-17T06:35:08.347Z,980.21
2022-11-17T06:36:09.264Z,980.19
2022-11-17T06:37:09.316Z,980.19
2022-11-17T06:38:11.305Z,980.14
2022-11-17T06:39:08.277Z,980.07
2022-11-17T06:40:08.502Z,980.05
2022-11-17T06:41:11.832Z,980.06
2022-11-17T06:42:08.213Z,980.03
2022-11-17T06:43:08.188Z,980.04
2022-11-17T06:44:08.184Z,980.06
2022-11-17T06:45:08.251Z,980.11
2022-11-17T06:46:08.167Z,980.16
2022-11-17T06:47:15.505Z,980.18
2022-11-17T06:48:15.626Z,980.10
2022-11-17T06:49:09.386Z,980.10
2022-11-17T06:50:09.249Z,980.14
2022-11-17T06:51:08.143Z,980.19
2022-11-17T06:52:09.115Z,980.21
2022-11-17T06:53:09.153Z,980.17
2022-11-17T06:54:08.358Z,980.25
2022-11-17T06:55:08.132Z,980.24
2022-11-17T06:56:08.088Z,980.25
2022-11-17T06:57:08.384Z,980.28
2022-11-17T06:58:09.301Z,980.26
2022-11-17T06:59:08.331Z,980.31
2022-11-17T07:00:08.307Z,980.34
2022-11-17T07:01:08.170Z,980.40
2022-11-17T07:02:08.060Z,980.37
2022-11-17T07:03:08.028Z,980.39
2022-11-17T07:04:08.250Z,980.33
2022-11-17T07:05:09.027Z,980.34
2022-11-17T07:06:08.215Z,980.31
2022-11-17T07:07:08.068Z,980.34
2022-11-17T07:08:08.434Z,980.32
2022-11-17T07:09:07.994Z,980.27
2022-11-17T07:10:07.965Z,980.34
2022-11-17T07:11:07.952Z,980.34
2022-11-17T07:12:07.989Z,980.34
2022-11-17T07:13:07.960Z,980.37
2022-11-17T07:14:07.924Z,980.34
2022-11-17T07:15:07.941Z,980.28
2022-11-17T07:16:08.921Z,980.26
2022-11-17T07:17:07.896Z,980.34
2022-11-17T07:18:07.880Z,980.33
2022-11-17T07:19:07.887Z,980.32
2022-11-17T07:20:07.862Z,980.39
2022-11-17T07:21:07.922Z,980.41
2022-11-17T07:22:07.834Z,980.36
2022-11-17T07:23:07.837Z,980.35
2022-11-17T07:24:07.820Z,980.35
2022-11-17T07:25:08.070Z,980.38
2022-11-17T07:26:07.849Z,980.38
2022-11-17T07:27:07.791Z,980.31
2022-11-17T07:28:07.779Z,980.23
2022-11-17T07:29:07.778Z,980.26
2022-11-17T07:30:07.755Z,980.29
2022-11-17T07:31:07.812Z,980.30
2022-11-17T07:32:07.779Z,980.27
2022-11-17T07:33:07.747Z,980.26
2022-11-17T07:34:07.734Z,980.29
2022-11-17T07:35:07.726Z,980.25
2022-11-17T07:36:07.708Z,980.25
2022-11-17T07:37:07.711Z,980.24
2022-11-17T07:38:07.677Z,980.22
2022-11-17T07:39:07.705Z,980.20
2022-11-17T07:40:07.659Z,980.19
2022-11-17T07:41:07.686Z,980.25
2022-11-17T07:42:07.637Z,980.24
2022-11-17T07:43:07.673Z,980.23
2022-11-17T07:44:07.635Z,980.24
2022-11-17T07:45:07.624Z,980.22
2022-11-17T07:46:07.595Z,980.25
2022-11-17T07:47:07.590Z,980.25
2022-11-17T07:48:07.576Z,980.26
2022-11-17T07:49:07.567Z,980.20
2022-11-17T07:50:07.574Z,980.19
2022-11-17T07:51:07.528Z,980.14
2022-11-17T07:52:07.553Z,980.11
2022-11-17T07:53:07.526Z,980.09
2022-11-17T07:54:07.538Z,980.11
2022-11-17T07:55:07.501Z,980.16
2022-11-17T07:56:07.521Z,980.12
2022-11-17T07:57:07.465Z,980.12
2022-11-17T07:58:07.481Z,980.07
2022-11-17T07:59:07.454Z,980.07
2022-11-17T08:00:07.463Z,980.16
2022-11-17T08:01:07.501Z,980.15
2022-11-17T08:02:07.484Z,980.09
2022-11-17T08:03:07.434Z,980.12
2022-11-17T08:04:07.458Z,979.99
2022-11-17T08:05:07.394Z,979.98
2022-11-17T08:06:07.405Z,979.90
2022-11-17T08:07:07.477Z,979.92
2022-11-17T08:08:07.378Z,979.99
2022-11-17T08:09:07.359Z,979.97
2022-11-17T08:10:07.363Z,979.96
2022-11-17T08:11:07.348Z,979.91
2022-11-17T08:12:07.369Z,979.91
2022-11-17T08:13:07.313Z,979.93
2022-11-17T08:14:07.317Z,979.99
2022-11-17T08:15:07.291Z,979.99
2022-11-17T08:16:07.308Z,980.00
2022-11-17T08:17:07.302Z,980.02
2022-11-17T08:18:07.273Z,980.04
2022-11-17T08:19:07.246Z,980.06
2022-11-17T08:20:07.263Z,980.04
2022-11-17T08:21:07.238Z,980.09
2022-11-17T08:22:07.245Z,980.09
2022-11-17T08:23:07.202Z,980.19
2022-11-17T08:24:07.218Z,980.20
2022-11-17T08:25:07.229Z,980.19
2022-11-17T08:26:07.227Z,980.22
2022-11-17T08:27:07.210Z,980.15
2022-11-17T08:28:07.160Z,980.19
2022-11-17T08:29:07.191Z,980.17
2022-11-17T08:30:07.161Z,980.16
2022-11-17T08:31:07.149Z,980.17
2022-11-17T08:32:07.149Z,980.13
2022-11-17T08:33:07.113Z,980.18
2022-11-17T08:34:07.126Z,980.14
2022-11-17T08:35:07.117Z,980.17
2022-11-17T08:36:07.096Z,980.17
2022-11-17T08:37:07.089Z,980.15
2022-11-17T08:38:07.095Z,980.10
2022-11-17T08:39:07.106Z,980.11
2022-11-17T08:40:07.073Z,980.19
2022-11-17T08:41:07.038Z,980.11
2022-11-17T08:42:07.029Z,980.12
2022-11-17T08:43:07.033Z,980.23
2022-11-17T08:44:06.997Z,980.22
2022-11-17T08:45:06.996Z,980.22
2022-11-17T08:46:07.008Z,980.20
2022-11-17T08:47:06.984Z,980.20
2022-11-17T08:48:06.993Z,980.19
2022-11-17T08:49:06.945Z,980.23
2022-11-17T08:50:14.223Z,980.16
2022-11-17T08:51:07.961Z,980.17
2022-11-17T08:52:09.957Z,980.17
2022-11-17T08:53:06.952Z,980.25
2022-11-17T08:54:09.927Z,980.16
2022-11-17T08:55:07.127Z,980.24
2022-11-17T08:56:06.894Z,980.23
2022-11-17T08:57:06.917Z,980.24
2022-11-17T08:58:06.827Z,980.28
2022-11-17T08:59:06.862Z,980.27
2022-11-17T09:00:06.841Z,980.29
2022-11-17T09:01:06.866Z,980.31
2022-11-17T09:02:06.812Z,980.28
2022-11-17T09:03:06.790Z,980.31
2022-11-17T09:04:06.816Z,980.32
2022-11-17T09:05:06.782Z,980.41
2022-11-17T09:06:06.800Z,980.40
2022-11-17T09:07:06.818Z,980.45
2022-11-17T09:08:30.241Z,980.49
2022-11-17T09:09:07.789Z,980.51
2022-11-17T09:10:06.735Z,980.52
2022-11-17T09:11:06.694Z,980.48
2022-11-17T09:12:06.694Z,980.53
2022-11-17T09:13:06.672Z,980.55
2022-11-17T09:14:06.667Z,980.54
2022-11-17T09:15:06.690Z,980.54
2022-11-17T09:16:06.669Z,980.48
2022-11-17T09:17:06.641Z,980.50
2022-11-17T09:18:06.652Z,980.52
2022-11-17T09:19:06.622Z,980.48
2022-11-17T09:20:06.634Z,980.47
2022-11-17T09:21:06.613Z,980.52
2022-11-17T09:22:06.602Z,980.51
2022-11-17T09:23:06.595Z,980.56
2022-11-17T09:24:06.567Z,980.59
2022-11-17T09:25:11.993Z,980.54
2022-11-17T09:26:07.547Z,980.60
2022-11-17T09:27:06.528Z,980.58
2022-11-17T09:28:06.552Z,980.58
2022-11-17T09:29:06.519Z,980.61
2022-11-17T09:30:06.588Z,980.63
2022-11-17T09:31:06.557Z,980.66
2022-11-17T09:32:06.488Z,980.69
2022-11-17T09:33:06.460Z,980.66
2022-11-17T09:34:06.564Z,980.68
2022-11-17T09:35:06.451Z,980.76
2022-11-17T09:36:06.492Z,980.72
2022-11-17T09:37:06.422Z,980.75
2022-11-17T09:38:06.434Z,980.73
2022-11-17T09:39:06.402Z,980.73
2022-11-17T09:40:06.407Z,980.76
2022-11-17T09:41:06.408Z,980.75
2022-11-17T09:42:06.377Z,980.76
2022-11-17T09:43:06.367Z,980.77
2022-11-17T09:44:06.381Z,980.76
2022-11-17T09:45:06.384Z,980.77
2022-11-17T09:46:07.787Z,980.79
2022-11-17T09:47:06.317Z,980.78
2022-11-17T09:48:34.030Z,980.79
2022-11-17T09:49:07.304Z,980.82
2022-11-17T09:50:06.305Z,980.85
2022-11-17T09:51:06.283Z,980.89
2022-11-17T09:52:06.288Z,980.85
2022-11-17T09:53:06.265Z,980.87
2022-11-17T09:54:06.268Z,980.86
2022-11-17T09:55:06.287Z,980.88
2022-11-17T09:56:06.271Z,980.80
2022-11-17T09:57:06.266Z,980.80
2022-11-17T09:58:06.232Z,980.77
2022-11-17T09:59:06.225Z,980.84
2022-11-17T10:00:06.214Z,980.82
2022-11-17T10:01:06.180Z,980.76
2022-11-17T10:02:06.238Z,980.85
2022-11-17T10:03:06.157Z,980.83
2022-11-17T10:04:06.169Z,980.82
2022-11-17T10:05:06.141Z,980.78
2022-11-17T10:06:06.276Z,980.79
2022-11-17T10:07:06.211Z,980.76
2022-11-17T10:08:06.138Z,980.80
2022-11-17T10:09:06.125Z,980.75
2022-11-17T10:10:06.116Z,980.80
2022-11-17T10:11:06.164Z,980.76
2022-11-17T10:12:06.112Z,980.80
2022-11-17T10:13:06.049Z,980.77
2022-11-17T10:14:06.074Z,980.75
2022-11-17T10:15:06.033Z,980.80
2022-11-17T10:16:06.029Z,980.79
2022-11-17T10:17:06.038Z,980.90
2022-11-17T10:18:06.029Z,980.91
2022-11-17T10:19:06.007Z,980.92
2022-11-17T10:20:06.041Z,980.89
2022-11-17T10:21:05.976Z,980.90
2022-11-17T10:22:05.989Z,980.92
2022-11-17T10:23:05.992Z,980.90
2022-11-17T10:24:05.944Z,980.80
2022-11-17T10:25:05.985Z,980.89
2022-11-17T10:26:05.947Z,980.86
2022-11-17T10:27:05.945Z,980.93
2022-11-17T10:28:05.908Z,980.94
2022-11-17T10:29:08.722Z,980.90
2022-11-17T10:30:05.906Z,980.90
2022-11-17T10:31:05.873Z,980.95
2022-11-17T10:32:05.935Z,980.96
2022-11-17T10:33:05.866Z,980.88
2022-11-17T10:34:05.956Z,980.85
2022-11-17T10:35:05.861Z,980.89
2022-11-17T10:36:05.856Z,980.86
2022-11-17T10:37:05.858Z,980.83
2022-11-17T10:38:05.977Z,980.79
2022-11-17T10:39:08.544Z,980.84
2022-11-17T10:40:06.810Z,980.86
2022-11-17T10:41:05.771Z,980.84
2022-11-17T10:42:05.789Z,980.83
2022-11-17T10:43:05.763Z,980.89
2022-11-17T10:44:05.824Z,980.86
2022-11-17T10:45:05.725Z,980.84
2022-11-17T10:46:05.766Z,980.90
2022-11-17T10:47:05.737Z,980.91
2022-11-17T10:48:05.742Z,980.92
2022-11-17T10:49:05.896Z,980.87
2022-11-17T10:50:05.715Z,980.85
2022-11-17T10:51:05.687Z,980.89
2022-11-17T10:52:05.686Z,980.86
2022-11-17T10:53:09.964Z,980.88
2022-11-17T10:54:06.645Z,980.89
2022-11-17T10:55:05.633Z,980.87
2022-11-17T10:56:05.636Z,980.87
2022-11-17T10:57:05.608Z,980.91
2022-11-17T10:58:05.664Z,980.89
2022-11-17T10:59:05.580Z,980.92
2022-11-17T11:00:05.628Z,980.92
2022-11-17T11:01:05.645Z,980.90
2022-11-17T11:02:05.556Z,980.90
2022-11-17T11:03:05.542Z,980.88
2022-11-17T11:04:05.557Z,980.95
2022-11-17T11:05:05.542Z,980.95
2022-11-17T11:06:05.548Z,980.88
2022-11-17T11:07:05.548Z,980.90
2022-11-17T11:08:05.499Z,980.92
2022-11-17T11:09:05.516Z,980.88
2022-11-17T11:10:05.480Z,980.90
2022-11-17T11:11:05.481Z,980.90
2022-11-17T11:12:05.471Z,980.93
2022-11-17T11:13:05.474Z,980.92
2022-11-17T11:14:05.448Z,980.93
2022-11-17T11:15:05.428Z,980.91
2022-11-17T11:16:05.500Z,980.89
2022-11-17T11:17:05.408Z,980.91
2022-11-17T11:18:05.396Z,980.92
2022-11-17T11:19:05.413Z,980.89
2022-11-17T11:20:05.371Z,980.89
2022-11-17T11:21:05.386Z,980.89
2022-11-17T11:22:05.364Z,980.90
2022-11-17T11:23:05.424Z,980.98
2022-11-17T11:24:05.362Z,980.91
2022-11-17T11:25:05.320Z,980.95
2022-11-17T11:26:05.343Z,980.96
2022-11-17T11:27:05.287Z,980.95
2022-11-17T11:28:05.329Z,980.95
2022-11-17T11:29:05.312Z,980.91
2022-11-17T11:30:05.322Z,980.90
2022-11-17T11:31:05.303Z,980.92
2022-11-17T11:32:05.239Z,980.91
2022-11-17T11:33:05.254Z,980.91
2022-11-17T11:34:05.256Z,980.93
2022-11-17T11:35:05.237Z,980.96
2022-11-17T11:36:12.252Z,980.90
2022-11-17T11:37:05.191Z,980.97
2022-11-17T11:38:07.702Z,980.97
2022-11-17T11:39:12.637Z,980.98
2022-11-17T11:40:05.172Z,980.94
2022-11-17T11:41:05.177Z,980.95
2022-11-17T11:42:08.100Z,980.93
2022-11-17T11:43:05.149Z,980.96
2022-11-17T11:44:05.117Z,980.95
2022-11-17T11:45:05.100Z,980.91
2022-11-17T11:46:12.157Z,980.96
2022-11-17T11:47:13.146Z,980.99
2022-11-17T11:48:05.088Z,980.96
2022-11-17T11:49:05.052Z,980.99
2022-11-17T11:50:05.053Z,980.91
2022-11-17T11:51:05.050Z,980.95
2022-11-17T11:52:05.046Z,980.96
2022-11-17T11:53:05.063Z,980.91
2022-11-17T11:54:05.014Z,980.95
2022-11-17T11:55:05.043Z,981.00
2022-11-17T11:56:05.012Z,981.02
2022-11-17T11:57:05.017Z,980.98
2022-11-17T11:58:04.996Z,980.97
2022-11-17T11:59:04.991Z,980.98
2022-11-17T12:00:05.188Z,981.07
2022-11-17T12:01:04.978Z,981.01
2022-11-17T12:02:05.005Z,981.01
2022-11-17T12:03:04.998Z,981.00
2022-11-17T12:04:04.931Z,981.04
2022-11-17T12:05:04.938Z,981.08
2022-11-17T12:06:04.894Z,981.12
2022-11-17T12:07:05.963Z,981.11
2022-11-17T12:08:10.366Z,981.06
2022-11-17T12:09:05.893Z,981.09
2022-11-17T12:10:04.870Z,981.09
2022-11-17T12:11:04.861Z,981.15
2022-11-17T12:12:04.827Z,981.17
2022-11-17T12:13:04.854Z,981.21
2022-11-17T12:14:04.816Z,981.13
2022-11-17T12:15:04.849Z,981.15
2022-11-17T12:16:04.839Z,981.18
2022-11-17T12:17:04.820Z,981.19
2022-11-17T12:18:04.828Z,981.20
2022-11-17T12:19:04.772Z,981.17
2022-11-17T12:20:10.448Z,981.22
2022-11-17T12:21:05.764Z,981.32
2022-11-17T12:22:04.728Z,981.29
2022-11-17T12:23:04.773Z,981.36
2022-11-17T12:24:04.724Z,981.41
2022-11-17T12:25:04.711Z,981.35
2022-11-17T12:26:04.703Z,981.36
2022-11-17T12:27:04.703Z,981.40
2022-11-17T12:28:04.677Z,981.35
2022-11-17T12:29:04.696Z,981.40